Terminal Aerodrome Forecast
Issued by NWS

Home | Current Version | Previous Version | Text Only | Print | Product List | Glossary On
Versions: 1 2 3 4 5 6 7 8 9 10 11 12 13 14 15 16 17 18 19 20 21 22 23
000
FTUS43 KLSX 230719 AAA
TAFCPS
TAF AMD
KCPS 230719Z 2307/2406 32009KT P6SM VCSH OVC010
      TEMPO 2307/2310 BKN008
     FM231000 31008KT P6SM VCSH BKN035 OVC120
     FM231500 28009KT P6SM SCT040 BKN120
     FM240000 30015G23KT P6SM SCT040 BKN250=

USA.gov is the U.S. government's official web portal to all federal, state and local government web resources and services.